Time;durP1;ratioP1;P1;durP2;ratioP2;P2;SDS_P1;SDS_P2;PMS_P1;PMS_P2;Temp;Humidity;BMP_temperature;BMP_pressure;BME280_temperature;BME280_humidity;BME280_pressure;Samples;Min_cycle;Max_cycle;Signal;HPM_P1;HPM_P2
2020/12/06 00:00:09;;;;;;;;;;;;;;;;;;2071460;28;7143;-64
2020/12/06 00:01:11;;;;;;;;;;;;;;;;;;2071760;28;7058;-58
2020/12/06 00:02:13;;;;;;;;;;;;;;;;;;2071685;28;7039;-60
2020/12/06 00:03:15;;;;;;;;;;;;;;;;;;2071921;28;7092;-60
2020/12/06 00:04:19;;;;;;;;;;;;;;;;;;2071669;28;7009;-58
2020/12/06 00:05:21;;;;;;;;;;;;;;;;;;2072212;28;7046;-59
2020/12/06 00:06:24;;;;;;;;;;;;;;;;;;2071722;28;7113;-60
2020/12/06 00:07:26;;;;;;;;;;;;;;;;;;2071613;28;8038;-61
2020/12/06 00:08:27;;;;;;;;;;;;;;;;;;2072086;28;7134;-63
2020/12/06 00:09:29;;;;;;;;;;;;;;;;;;2072019;28;7009;-60
2020/12/06 00:10:31;;;;;;;;;;;;;;;;;;2072018;28;7017;-59
2020/12/06 00:11:33;;;;;;;;;;;;;;;;;;2072739;28;7029;-60
2020/12/06 00:12:36;;;;;;;;;;;;;;;;;;2072762;28;7025;-59
2020/12/06 00:13:38;;;;;;;;;;;;;;;;;;2072437;28;7390;-60
2020/12/06 00:14:40;;;;;;;;;;;;;;;;;;2071526;28;7300;-58
2020/12/06 00:15:42;;;;;;;;;;;;;;;;;;2071861;28;7096;-60
2020/12/06 00:16:47;;;;;;;;;;;;;;;;;;2071557;28;7013;-59
2020/12/06 00:17:49;;;;;;;;;;;;;;;;;;2072390;28;7013;-63
2020/12/06 00:18:51;;;;;;;;;;;;;;;;;;2071761;28;8048;-59
2020/12/06 00:19:53;;;;;;;;;;;;;;;;;;2071411;28;7117;-60
2020/12/06 00:20:55;;;;;;;;;;;;;;;;;;2071956;28;8035;-61
2020/12/06 00:21:56;;;;;;;;;;;;;;;;;;2071874;28;7005;-60
2020/12/06 00:23:00;;;;;;;;;;;;;;;;;;2069952;28;7096;-61
2020/12/06 00:24:04;;;;;;;;;;;;;;;;;;2072142;28;7044;-58
2020/12/06 00:25:07;;;;;;;;;;;;;;;;;;2071899;28;7135;-59
2020/12/06 00:26:09;;;;;;;;;;;;;;;;;;2071916;28;7112;-60
2020/12/06 00:27:11;;;;;;;;;;;;;;;;;;2072313;28;7100;-59
2020/12/06 00:28:13;;;;;;;;;;;;;;;;;;2071957;28;7144;-58
2020/12/06 00:29:15;;;;;;;;;;;;;;;;;;2071791;28;7001;-60
2020/12/06 00:30:17;;;;;;;;;;;;;;;;;;2072181;28;7111;-59
2020/12/06 00:31:19;;;;;;;;;;;;;;;;;;2072051;28;7324;-59
2020/12/06 00:32:21;;;;;;;;;;;;;;;;;;2069691;28;8099;-61
2020/12/06 00:33:23;;;;;;;;;;;;;;;;;;2069125;28;7156;-58
2020/12/06 00:34:26;;;;;;;;;;;;;;;;;;2071874;28;7089;-60
2020/12/06 00:35:28;;;;;;;;;;;;;;;;;;2071396;28;7466;-61
2020/12/06 00:36:30;;;;;;;;;;;;;;;;;;2072191;28;7387;-61
2020/12/06 00:37:32;;;;;;;;;;;;;;;;;;2072110;28;7105;-59
2020/12/06 00:38:33;;;;;;;;;;;;;;;;;;2071619;28;7029;-58
2020/12/06 00:39:35;;;;;;;;;;;;;;;;;;2071587;28;7013;-59
2020/12/06 00:40:37;;;;;;;;;;;;;;;;;;2072084;28;7217;-60
2020/12/06 00:41:39;;;;;;;;;;;;;;;;;;2072100;28;7009;-59
2020/12/06 00:42:41;;;;;;;;;;;;;;;;;;2072441;28;7005;-60
2020/12/06 00:43:43;;;;;;;;;;;;;;;;;;2070688;28;7089;-59
2020/12/06 00:44:45;;;;;;;;;;;;;;;;;;2069846;28;7018;-60
2020/12/06 00:45:47;;;;;;;;;;;;;;;;;;2069166;28;7013;-60
2020/12/06 00:46:49;;;;;;;;;;;;;;;;;;2071424;28;7009;-61
2020/12/06 00:47:51;;;;;;;;;;;;;;;;;;2071689;28;7009;-58
2020/12/06 00:48:53;;;;;;;;;;;;;;;;;;2071554;28;8487;-62
2020/12/06 00:49:55;;;;;;;;;;;;;;;;;;2071464;28;7085;-60
2020/12/06 00:50:57;;;;;;;;;;;;;;;;;;2071955;28;7105;-62
2020/12/06 00:51:59;;;;;;;;;;;;;;;;;;2071245;28;7117;-61
2020/12/06 00:53:01;;;;;;;;;;;;;;;;;;2072062;28;7013;-61
2020/12/06 00:54:03;;;;;;;;;;;;;;;;;;2070774;28;7113;-63
2020/12/06 00:55:05;;;;;;;;;;;;;;;;;;2071796;28;8043;-59
2020/12/06 00:56:15;;;;;;;;;;;;;;;;;;2071885;28;7112;-60
2020/12/06 00:57:16;;;;;;;;;;;;;;;;;;2072142;28;7112;-60
2020/12/06 00:58:19;;;;;;;;;;;;;;;;;;2071598;28;7153;-62
2020/12/06 00:59:21;;;;;;;;;;;;;;;;;;2071776;28;7049;-60
2020/12/06 01:00:23;;;;;;;;;;;;;;;;;;2071080;28;7042;-59
2020/12/06 01:01:25;;;;;;;;;;;;;;;;;;2071188;28;7060;-60
2020/12/06 01:02:27;;;;;;;;;;;;;;;;;;2071321;28;7009;-58
2020/12/06 01:03:29;;;;;;;;;;;;;;;;;;2071810;28;7025;-59
2020/12/06 01:04:30;;;;;;;;;;;;;;;;;;2071420;28;8036;-60
2020/12/06 01:05:33;;;;;;;;;;;;;;;;;;2071949;28;7316;-59
2020/12/06 01:06:35;;;;;;;;;;;;;;;;;;2070947;28;8027;-59
2020/12/06 01:07:41;;;;;;;;;;;;;;;;;;2071837;28;7013;-60
2020/12/06 01:08:44;;;;;;;;;;;;;;;;;;2071591;28;7093;-60
2020/12/06 01:09:46;;;;;;;;;;;;;;;;;;2071638;28;7013;-60
2020/12/06 01:10:47;;;;;;;;;;;;;;;;;;2071528;28;7303;-62
2020/12/06 01:11:49;;;;;;;;;;;;;;;;;;2069933;28;7104;-59
2020/12/06 01:12:51;;;;;;;;;;;;;;;;;;2072159;28;7046;-57
2020/12/06 01:13:53;;;;;;;;;;;;;;;;;;2070977;28;7324;-59
2020/12/06 01:14:56;;;;;;;;;;;;;;;;;;2071047;28;7009;-60
2020/12/06 01:15:58;;;;;;;;;;;;;;;;;;2071323;28;7009;-59
2020/12/06 01:17:00;;;;;;;;;;;;;;;;;;2071548;28;7013;-61
2020/12/06 01:18:02;;;;;;;;;;;;;;;;;;2071695;28;7046;-63
2020/12/06 01:19:03;;;;;;;;;;;;;;;;;;2070838;28;7133;-62
2020/12/06 01:20:07;;;;;;;;;;;;;;;;;;2069955;28;7105;-60
2020/12/06 01:21:11;;;;;;;;;;;;;;;;;;2071420;28;7046;-61
2020/12/06 01:22:13;;;;;;;;;;;;;;;;;;2071596;28;7104;-59
2020/12/06 01:23:15;;;;;;;;;;;;;;;;;;2070203;28;7312;-60
2020/12/06 01:24:18;;;;;;;;;;;;;;;;;;2071241;28;7088;-60
2020/12/06 01:25:20;;;;;;;;;;;;;;;;;;2071447;28;7088;-59
2020/12/06 01:26:21;;;;;;;;;;;;;;;;;;2071903;28;8051;-58
2020/12/06 01:27:23;;;;;;;;;;;;;;;;;;2072133;28;7096;-61
2020/12/06 01:28:25;;;;;;;;;;;;;;;;;;2071869;28;7088;-59
2020/12/06 01:29:27;;;;;;;;;;;;;;;;;;2071007;28;7013;-57
2020/12/06 01:30:29;;;;;;;;;;;;;;;;;;2071715;28;7152;-61
2020/12/06 01:31:31;;;;;;;;;;;;;;;;;;2070910;28;8027;-58
2020/12/06 01:32:33;;;;;;;;;;;;;;;;;;2071466;28;7096;-60
2020/12/06 01:33:35;;;;;;;;;;;;;;;;;;2071423;28;7096;-61
2020/12/06 01:34:37;;;;;;;;;;;;;;;;;;2070922;28;7058;-59
2020/12/06 01:35:39;;;;;;;;;;;;;;;;;;2071243;28;7045;-59
2020/12/06 01:36:41;;;;;;;;;;;;;;;;;;2071247;28;7037;-60
2020/12/06 01:37:44;;;;;;;;;;;;;;;;;;2071058;28;7013;-58
2020/12/06 01:38:46;;;;;;;;;;;;;;;;;;2071572;28;7093;-62
2020/12/06 01:39:48;;;;;;;;;;;;;;;;;;2071243;28;7104;-60
2020/12/06 01:40:50;;;;;;;;;;;;;;;;;;2072409;28;7013;-60
2020/12/06 01:41:56;;;;;;;;;;;;;;;;;;2071345;28;7192;-60
2020/12/06 01:42:57;;;;;;;;;;;;;;;;;;2071494;28;7013;-58
2020/12/06 01:44:00;;;;;;;;;;;;;;;;;;2071382;28;7013;-58
2020/12/06 01:45:02;;;;;;;;;;;;;;;;;;2071334;28;7013;-61
2020/12/06 01:46:05;;;;;;;;;;;;;;;;;;2071458;28;7038;-61
2020/12/06 01:47:07;;;;;;;;;;;;;;;;;;2069098;28;7285;-58
2020/12/06 01:48:09;;;;;;;;;;;;;;;;;;2071375;28;7137;-58
2020/12/06 01:49:11;;;;;;;;;;;;;;;;;;2071058;28;8099;-58
2020/12/06 01:50:13;;;;;;;;;;;;;;;;;;2070738;28;7054;-61
2020/12/06 01:51:17;;;;;;;;;;;;;;;;;;2071319;28;7100;-60
2020/12/06 01:52:19;;;;;;;;;;;;;;;;;;2070972;28;8051;-59
2020/12/06 01:53:21;;;;;;;;;;;;;;;;;;2070987;28;7112;-60
2020/12/06 01:54:23;;;;;;;;;;;;;;;;;;2071356;28;7029;-62
2020/12/06 01:55:26;;;;;;;;;;;;;;;;;;2071584;28;8042;-59
2020/12/06 01:56:28;;;;;;;;;;;;;;;;;;2076985;28;7017;-60
2020/12/06 01:57:30;;;;;;;;;;;;;;;;;;2079370;28;7017;-60
2020/12/06 01:58:32;;;;;;;;;;;;;;;;;;2078953;28;7053;-61
2020/12/06 01:59:34;;;;;;;;;;;;;;;;;;2079209;28;7009;-60
2020/12/06 02:00:36;;;;;;;;;;;;;;;;;;2070627;28;7359;-60
2020/12/06 02:01:40;;;;;;;;;;;;;;;;;;2070752;28;7013;-61
2020/12/06 02:02:42;;;;;;;;;;;;;;;;;;2071589;28;7092;-58
2020/12/06 02:03:44;;;;;;;;;;;;;;;;;;2077654;28;7013;-61
2020/12/06 02:04:46;;;;;;;;;;;;;;;;;;2076722;28;7096;-60
2020/12/06 02:05:48;;;;;;;;;;;;;;;;;;2071474;28;7038;-61
2020/12/06 02:06:50;;;;;;;;;;;;;;;;;;2071320;28;7153;-59
2020/12/06 02:07:52;;;;;;;;;;;;;;;;;;2071708;28;7088;-61
2020/12/06 02:08:55;;;;;;;;;;;;;;;;;;2071177;28;7009;-59
2020/12/06 02:09:57;;;;;;;;;;;;;;;;;;2071351;28;7009;-59
2020/12/06 02:10:59;;;;;;;;;;;;;;;;;;2071889;28;7092;-60
2020/12/06 02:12:07;;;;;;;;;;;;;;;;;;2071439;28;7139;-59
2020/12/06 02:13:09;;;;;;;;;;;;;;;;;;2071759;28;8102;-60
2020/12/06 02:14:11;;;;;;;;;;;;;;;;;;2071098;28;7010;-60
2020/12/06 02:15:14;;;;;;;;;;;;;;;;;;2071348;28;7376;-60
2020/12/06 02:16:16;;;;;;;;;;;;;;;;;;2071644;28;7092;-58
2020/12/06 02:17:18;;;;;;;;;;;;;;;;;;2071091;28;7296;-60
2020/12/06 02:18:20;;;;;;;;;;;;;;;;;;2071151;28;7084;-61
2020/12/06 02:19:22;;;;;;;;;;;;;;;;;;2071243;28;7311;-60
2020/12/06 02:20:24;;;;;;;;;;;;;;;;;;2071607;28;7013;-61
2020/12/06 02:21:26;;;;;;;;;;;;;;;;;;2070677;28;7037;-60
2020/12/06 02:22:27;;;;;;;;;;;;;;;;;;2071417;28;7112;-60
2020/12/06 02:23:29;;;;;;;;;;;;;;;;;;2071500;28;7108;-60
2020/12/06 02:24:31;;;;;;;;;;;;;;;;;;2071556;28;7017;-58
2020/12/06 02:25:34;;;;;;;;;;;;;;;;;;2071789;28;8576;-60
2020/12/06 02:26:37;;;;;;;;;;;;;;;;;;2073964;28;7049;-59
2020/12/06 02:27:39;;;;;;;;;;;;;;;;;;2072995;28;7150;-59
2020/12/06 02:28:41;;;;;;;;;;;;;;;;;;2075091;28;8604;-61
2020/12/06 02:29:43;;;;;;;;;;;;;;;;;;2076581;28;7096;-58
2020/12/06 02:30:44;;;;;;;;;;;;;;;;;;2072508;28;7389;-59
2020/12/06 02:31:47;;;;;;;;;;;;;;;;;;2072767;28;7204;-58
2020/12/06 02:32:49;;;;;;;;;;;;;;;;;;2073216;28;7196;-59
2020/12/06 02:33:51;;;;;;;;;;;;;;;;;;2073029;28;7013;-59
2020/12/06 02:34:53;;;;;;;;;;;;;;;;;;2073121;28;7316;-59
2020/12/06 02:35:55;;;;;;;;;;;;;;;;;;2071920;28;7010;-61
2020/12/06 02:36:56;;;;;;;;;;;;;;;;;;2076286;28;7108;-60
2020/12/06 02:37:59;;;;;;;;;;;;;;;;;;2073227;28;7306;-60
2020/12/06 02:39:01;;;;;;;;;;;;;;;;;;2072839;28;7033;-58
2020/12/06 02:40:04;;;;;;;;;;;;;;;;;;2073284;28;7093;-60
2020/12/06 02:41:06;;;;;;;;;;;;;;;;;;2073290;28;7013;-59
2020/12/06 02:42:07;;;;;;;;;;;;;;;;;;2072607;28;7120;-61
2020/12/06 02:43:09;;;;;;;;;;;;;;;;;;2073055;28;7013;-58
2020/12/06 02:44:13;;;;;;;;;;;;;;;;;;2072934;28;7025;-60
2020/12/06 02:45:15;;;;;;;;;;;;;;;;;;2072943;28;7109;-60
2020/12/06 02:46:17;;;;;;;;;;;;;;;;;;2072682;28;7105;-62
2020/12/06 02:47:18;;;;;;;;;;;;;;;;;;2072661;28;7045;-60
2020/12/06 02:48:20;;;;;;;;;;;;;;;;;;2072497;28;7328;-61
2020/12/06 02:49:22;;;;;;;;;;;;;;;;;;2072752;28;7112;-60
2020/12/06 02:50:24;;;;;;;;;;;;;;;;;;2072875;28;7057;-60
2020/12/06 02:51:26;;;;;;;;;;;;;;;;;;2073102;28;8103;-60
2020/12/06 02:52:28;;;;;;;;;;;;;;;;;;2071958;28;7005;-61
2020/12/06 02:53:31;;;;;;;;;;;;;;;;;;2071787;28;7013;-59
2020/12/06 02:54:33;;;;;;;;;;;;;;;;;;2072372;28;7042;-60
2020/12/06 02:55:35;;;;;;;;;;;;;;;;;;2072071;28;7096;-60
2020/12/06 02:56:37;;;;;;;;;;;;;;;;;;2072406;28;7088;-60
2020/12/06 02:57:39;;;;;;;;;;;;;;;;;;2072373;28;7364;-61
2020/12/06 02:58:41;;;;;;;;;;;;;;;;;;2072288;28;7092;-60
2020/12/06 02:59:43;;;;;;;;;;;;;;;;;;2072565;28;7051;-60
2020/12/06 03:00:45;;;;;;;;;;;;;;;;;;2072051;28;8111;-59
2020/12/06 03:01:47;;;;;;;;;;;;;;;;;;2072617;28;7151;-59
2020/12/06 03:02:49;;;;;;;;;;;;;;;;;;2072501;28;8111;-60
2020/12/06 03:03:50;;;;;;;;;;;;;;;;;;2072532;28;7288;-57
2020/12/06 03:04:52;;;;;;;;;;;;;;;;;;2072247;28;7155;-63
2020/12/06 03:05:54;;;;;;;;;;;;;;;;;;2072396;28;7010;-59
2020/12/06 03:06:56;;;;;;;;;;;;;;;;;;2072377;28;7050;-61
2020/12/06 03:07:58;;;;;;;;;;;;;;;;;;2072855;28;7117;-59
2020/12/06 03:09:00;;;;;;;;;;;;;;;;;;2072553;28;7253;-61
2020/12/06 03:10:06;;;;;;;;;;;;;;;;;;2072360;28;7010;-60
2020/12/06 03:11:08;;;;;;;;;;;;;;;;;;2072603;28;8273;-61
2020/12/06 03:12:10;;;;;;;;;;;;;;;;;;2072321;28;7089;-61
2020/12/06 03:13:12;;;;;;;;;;;;;;;;;;2071761;28;8051;-58
2020/12/06 03:14:14;;;;;;;;;;;;;;;;;;2072174;28;7013;-61
2020/12/06 03:15:16;;;;;;;;;;;;;;;;;;2072468;28;7096;-62
2020/12/06 03:16:18;;;;;;;;;;;;;;;;;;2072323;28;7412;-60
2020/12/06 03:17:20;;;;;;;;;;;;;;;;;;2071861;28;7096;-58
2020/12/06 03:18:22;;;;;;;;;;;;;;;;;;2072240;28;7013;-61
2020/12/06 03:19:24;;;;;;;;;;;;;;;;;;2072215;28;8005;-58
2020/12/06 03:20:26;;;;;;;;;;;;;;;;;;2072600;28;8043;-60
2020/12/06 03:21:28;;;;;;;;;;;;;;;;;;2072167;28;7038;-59
2020/12/06 03:22:32;;;;;;;;;;;;;;;;;;2071506;28;7026;-59
2020/12/06 03:23:34;;;;;;;;;;;;;;;;;;2071891;28;7017;-61
2020/12/06 03:24:36;;;;;;;;;;;;;;;;;;2072836;28;7233;-61
2020/12/06 03:25:38;;;;;;;;;;;;;;;;;;2072078;28;8005;-58
2020/12/06 03:26:40;;;;;;;;;;;;;;;;;;2072435;28;7042;-59
2020/12/06 03:27:42;;;;;;;;;;;;;;;;;;2072240;28;7092;-61
2020/12/06 03:28:44;;;;;;;;;;;;;;;;;;2072391;28;7013;-61
2020/12/06 03:29:46;;;;;;;;;;;;;;;;;;2071214;28;8042;-61
2020/12/06 03:30:48;;;;;;;;;;;;;;;;;;2072254;28;7050;-60
2020/12/06 03:31:50;;;;;;;;;;;;;;;;;;2072251;28;7137;-58
2020/12/06 03:32:51;;;;;;;;;;;;;;;;;;2072253;28;8040;-60
2020/12/06 03:33:53;;;;;;;;;;;;;;;;;;2072372;28;7013;-60
2020/12/06 03:34:55;;;;;;;;;;;;;;;;;;2072519;28;7041;-60
2020/12/06 03:35:57;;;;;;;;;;;;;;;;;;2070490;28;7085;-60
2020/12/06 03:37:00;;;;;;;;;;;;;;;;;;2071511;28;8055;-60
2020/12/06 03:38:02;;;;;;;;;;;;;;;;;;2071789;28;7328;-61
2020/12/06 03:39:04;;;;;;;;;;;;;;;;;;2072589;28;8619;-59
2020/12/06 03:40:06;;;;;;;;;;;;;;;;;;2072014;28;7711;-58
2020/12/06 03:41:11;;;;;;;;;;;;;;;;;;2072321;28;7009;-58
2020/12/06 03:42:12;;;;;;;;;;;;;;;;;;2071980;28;7009;-59
2020/12/06 03:43:14;;;;;;;;;;;;;;;;;;2072519;28;7092;-62
2020/12/06 03:44:16;;;;;;;;;;;;;;;;;;2072002;28;7092;-61
2020/12/06 03:45:19;;;;;;;;;;;;;;;;;;2072342;28;7309;-60
2020/12/06 03:46:21;;;;;;;;;;;;;;;;;;2071948;28;7022;-59
2020/12/06 03:47:23;;;;;;;;;;;;;;;;;;2071925;28;7013;-58
2020/12/06 03:48:24;;;;;;;;;;;;;;;;;;2071752;28;7160;-61
2020/12/06 03:49:26;;;;;;;;;;;;;;;;;;2072261;28;7089;-59
2020/12/06 03:50:28;;;;;;;;;;;;;;;;;;2072418;28;7045;-61
2020/12/06 03:51:30;;;;;;;;;;;;;;;;;;2072761;28;7121;-60
2020/12/06 03:52:32;;;;;;;;;;;;;;;;;;2070538;28;7042;-60
2020/12/06 03:53:34;;;;;;;;;;;;;;;;;;2072558;28;7009;-61
2020/12/06 03:54:36;;;;;;;;;;;;;;;;;;2071970;28;7113;-60
2020/12/06 03:55:38;;;;;;;;;;;;;;;;;;2072177;28;7085;-60
2020/12/06 03:56:40;;;;;;;;;;;;;;;;;;2079412;28;7021;-60
2020/12/06 03:57:42;;;;;;;;;;;;;;;;;;2079996;28;7009;-61
2020/12/06 03:58:45;;;;;;;;;;;;;;;;;;2080203;28;7009;-59
2020/12/06 03:59:47;;;;;;;;;;;;;;;;;;2080094;28;7315;-60
2020/12/06 04:00:49;;;;;;;;;;;;;;;;;;2080363;28;7085;-58
2020/12/06 04:01:50;;;;;;;;;;;;;;;;;;2079993;28;7040;-60
2020/12/06 04:02:52;;;;;;;;;;;;;;;;;;2080438;28;7050;-57
2020/12/06 04:03:54;;;;;;;;;;;;;;;;;;2080245;28;7120;-59
2020/12/06 04:04:56;;;;;;;;;;;;;;;;;;2080687;28;7013;-59
2020/12/06 04:05:58;;;;;;;;;;;;;;;;;;2080904;28;7030;-61
2020/12/06 04:07:00;;;;;;;;;;;;;;;;;;2080075;28;7109;-60
2020/12/06 04:08:03;;;;;;;;;;;;;;;;;;2079838;28;7088;-62
2020/12/06 04:09:05;;;;;;;;;;;;;;;;;;2080168;28;7109;-61
2020/12/06 04:10:07;;;;;;;;;;;;;;;;;;2079878;28;7084;-58
2020/12/06 04:11:08;;;;;;;;;;;;;;;;;;2080009;28;7029;-62
2020/12/06 04:12:10;;;;;;;;;;;;;;;;;;2079780;28;7210;-59
2020/12/06 04:13:12;;;;;;;;;;;;;;;;;;2080118;28;7029;-59
2020/12/06 04:14:14;;;;;;;;;;;;;;;;;;2079667;28;7045;-59
2020/12/06 04:15:16;;;;;;;;;;;;;;;;;;2080150;28;7093;-61
2020/12/06 04:16:18;;;;;;;;;;;;;;;;;;2072251;28;7010;-59
2020/12/06 04:17:20;;;;;;;;;;;;;;;;;;2072345;28;7309;-61
2020/12/06 04:18:22;;;;;;;;;;;;;;;;;;2072226;28;7088;-58
2020/12/06 04:19:24;;;;;;;;;;;;;;;;;;2072791;28;7013;-61
2020/12/06 04:20:26;;;;;;;;;;;;;;;;;;2072088;28;7009;-63
2020/12/06 04:21:28;;;;;;;;;;;;;;;;;;2072159;28;7010;-60
2020/12/06 04:22:30;;;;;;;;;;;;;;;;;;2072101;28;7033;-61
2020/12/06 04:23:31;;;;;;;;;;;;;;;;;;2072167;28;7009;-58
2020/12/06 04:24:33;;;;;;;;;;;;;;;;;;2071989;28;7013;-60
2020/12/06 04:25:35;;;;;;;;;;;;;;;;;;2072374;28;7013;-61
2020/12/06 04:26:37;;;;;;;;;;;;;;;;;;2071935;28;7125;-59
2020/12/06 04:27:39;;;;;;;;;;;;;;;;;;2072128;28;7248;-63
2020/12/06 04:28:41;;;;;;;;;;;;;;;;;;2071727;28;7092;-58
2020/12/06 04:29:43;;;;;;;;;;;;;;;;;;2072139;28;7088;-60
2020/12/06 04:30:45;;;;;;;;;;;;;;;;;;2071925;28;7041;-60
2020/12/06 04:31:47;;;;;;;;;;;;;;;;;;2072123;28;7005;-58
2020/12/06 04:32:49;;;;;;;;;;;;;;;;;;2072317;28;7088;-60
2020/12/06 04:33:51;;;;;;;;;;;;;;;;;;2072301;28;7013;-61
2020/12/06 04:34:53;;;;;;;;;;;;;;;;;;2071782;28;7010;-61
2020/12/06 04:35:55;;;;;;;;;;;;;;;;;;2072219;28;7038;-60
2020/12/06 04:36:56;;;;;;;;;;;;;;;;;;2077482;28;7025;-62
2020/12/06 04:37:59;;;;;;;;;;;;;;;;;;2080171;28;7017;-59
2020/12/06 04:39:01;;;;;;;;;;;;;;;;;;2072004;28;7141;-59
2020/12/06 04:40:04;;;;;;;;;;;;;;;;;;2070783;28;7092;-60
2020/12/06 04:41:06;;;;;;;;;;;;;;;;;;2071789;28;7030;-60
2020/12/06 04:42:08;;;;;;;;;;;;;;;;;;2071868;28;7106;-59
2020/12/06 04:43:16;;;;;;;;;;;;;;;;;;2071892;28;7074;-60
2020/12/06 04:44:18;;;;;;;;;;;;;;;;;;2071969;28;7136;-60
2020/12/06 04:45:20;;;;;;;;;;;;;;;;;;2072305;28;8356;-61
2020/12/06 04:46:24;;;;;;;;;;;;;;;;;;2072619;28;8050;-61
2020/12/06 04:47:46;;;;;;;;;;;;;;;;;;2072134;28;7152;-62
2020/12/06 04:49:11;;;;;;;;;;;;;;;;;;2070918;28;7045;-59
2020/12/06 04:50:34;;;;;;;;;;;;;;;;;;2072315;28;7049;-60
2020/12/06 04:51:40;;;;;;;;;;;;;;;;;;2071914;28;7144;-58
2020/12/06 04:52:43;;;;;;;;;;;;;;;;;;2071590;28;7045;-60
2020/12/06 04:53:59;;;;;;;;;;;;;;;;;;2071703;28;7042;-61
2020/12/06 04:55:02;;;;;;;;;;;;;;;;;;2071756;28;7096;-60
2020/12/06 04:56:08;;;;;;;;;;;;;;;;;;2071790;28;7119;-59
2020/12/06 04:57:11;;;;;;;;;;;;;;;;;;2062792;28;8016;-60
2020/12/06 04:58:23;;;;;;;;;;;;;;;;;;2063428;28;7091;-58
2020/12/06 04:59:27;;;;;;;;;;;;;;;;;;2071321;28;7033;-62
2020/12/06 05:00:34;;;;;;;;;;;;;;;;;;2071870;28;7156;-61
2020/12/06 05:01:39;;;;;;;;;;;;;;;;;;2071519;28;7017;-62
2020/12/06 05:02:46;;;;;;;;;;;;;;;;;;2071829;28;7101;-59
2020/12/06 05:03:55;;;;;;;;;;;;;;;;;;2071755;28;7054;-59
2020/12/06 05:05:01;;;;;;;;;;;;;;;;;;2071429;28;8050;-62
2020/12/06 05:06:04;;;;;;;;;;;;;;;;;;2071100;28;7117;-59
2020/12/06 05:07:06;;;;;;;;;;;;;;;;;;2071270;28;8047;-59
2020/12/06 05:08:12;;;;;;;;;;;;;;;;;;2071634;28;8050;-59
2020/12/06 05:09:15;;;;;;;;;;;;;;;;;;2070402;28;7048;-57
2020/12/06 05:10:17;;;;;;;;;;;;;;;;;;2071766;28;7005;-61
2020/12/06 05:11:20;;;;;;;;;;;;;;;;;;2071787;28;7021;-60
2020/12/06 05:12:22;;;;;;;;;;;;;;;;;;2070184;28;7042;-59
2020/12/06 05:13:24;;;;;;;;;;;;;;;;;;2071338;28;8832;-60
2020/12/06 05:14:25;;;;;;;;;;;;;;;;;;2071101;28;7504;-59
2020/12/06 05:15:27;;;;;;;;;;;;;;;;;;2071470;28;8045;-60
2020/12/06 05:16:30;;;;;;;;;;;;;;;;;;2071645;28;7013;-60
2020/12/06 05:17:31;;;;;;;;;;;;;;;;;;2071741;28;7025;-61
2020/12/06 05:18:33;;;;;;;;;;;;;;;;;;2071743;28;7010;-61
2020/12/06 05:19:35;;;;;;;;;;;;;;;;;;2071732;28;7124;-61
2020/12/06 05:20:37;;;;;;;;;;;;;;;;;;2070846;28;7009;-62
2020/12/06 05:21:40;;;;;;;;;;;;;;;;;;2071151;28;8039;-59
2020/12/06 05:22:46;;;;;;;;;;;;;;;;;;2070730;28;7013;-60
2020/12/06 05:23:48;;;;;;;;;;;;;;;;;;2071178;28;8053;-60
2020/12/06 05:24:50;;;;;;;;;;;;;;;;;;2071009;28;8108;-60
2020/12/06 05:25:52;;;;;;;;;;;;;;;;;;2071635;28;7197;-59
2020/12/06 05:26:54;;;;;;;;;;;;;;;;;;2071099;28;7221;-59
2020/12/06 05:27:56;;;;;;;;;;;;;;;;;;2071872;28;7005;-59
2020/12/06 05:28:59;;;;;;;;;;;;;;;;;;2071262;28;7136;-61
2020/12/06 05:30:03;;;;;;;;;;;;;;;;;;2069983;28;7009;-59
2020/12/06 05:31:05;;;;;;;;;;;;;;;;;;2071917;28;7021;-59
2020/12/06 05:32:07;;;;;;;;;;;;;;;;;;2071528;28;7112;-63
2020/12/06 05:33:09;;;;;;;;;;;;;;;;;;2063059;28;8048;-60
2020/12/06 05:34:11;;;;;;;;;;;;;;;;;;2063645;28;7013;-60
2020/12/06 05:35:13;;;;;;;;;;;;;;;;;;2070842;28;7109;-60
2020/12/06 05:36:15;;;;;;;;;;;;;;;;;;2071512;28;7092;-59
2020/12/06 05:37:17;;;;;;;;;;;;;;;;;;2071488;28;7098;-62
2020/12/06 05:38:19;;;;;;;;;;;;;;;;;;2071165;28;7093;-59
2020/12/06 05:39:22;;;;;;;;;;;;;;;;;;2071155;28;7042;-59
2020/12/06 05:40:24;;;;;;;;;;;;;;;;;;2071169;28;7040;-61
2020/12/06 05:41:26;;;;;;;;;;;;;;;;;;2071021;28;8009;-59
2020/12/06 05:42:28;;;;;;;;;;;;;;;;;;2071868;28;7058;-61
2020/12/06 05:43:29;;;;;;;;;;;;;;;;;;2070753;28;7109;-60
2020/12/06 05:44:31;;;;;;;;;;;;;;;;;;2071515;28;7013;-59
2020/12/06 05:45:33;;;;;;;;;;;;;;;;;;2071075;28;7013;-59
2020/12/06 05:46:36;;;;;;;;;;;;;;;;;;2071512;28;7046;-59
2020/12/06 05:47:38;;;;;;;;;;;;;;;;;;2071600;28;7013;-61
2020/12/06 05:48:41;;;;;;;;;;;;;;;;;;2071612;28;7120;-60
2020/12/06 05:49:44;;;;;;;;;;;;;;;;;;2071257;28;7017;-59
2020/12/06 05:50:46;;;;;;;;;;;;;;;;;;2071411;28;7100;-59
2020/12/06 05:51:49;;;;;;;;;;;;;;;;;;2070945;28;7042;-59
2020/12/06 05:52:55;;;;;;;;;;;;;;;;;;2071428;28;8043;-60
2020/12/06 05:53:58;;;;;;;;;;;;;;;;;;2071480;28;7014;-60
2020/12/06 05:55:01;;;;;;;;;;;;;;;;;;2071079;28;7143;-58
2020/12/06 05:56:19;;;;;;;;;;;;;;;;;;2070762;28;7113;-62
2020/12/06 05:57:25;;;;;;;;;;;;;;;;;;2071545;28;7017;-59
2020/12/06 05:58:27;;;;;;;;;;;;;;;;;;2071617;28;7029;-60
2020/12/06 05:59:33;;;;;;;;;;;;;;;;;;2071144;28;7096;-60
2020/12/06 06:00:35;;;;;;;;;;;;;;;;;;2070816;28;7013;-59
2020/12/06 06:01:37;;;;;;;;;;;;;;;;;;2070888;28;7014;-61
2020/12/06 06:02:42;;;;;;;;;;;;;;;;;;2070896;28;7236;-60
2020/12/06 06:03:48;;;;;;;;;;;;;;;;;;2071394;28;7017;-60
2020/12/06 06:04:51;;;;;;;;;;;;;;;;;;2070764;28;7048;-60
2020/12/06 06:05:54;;;;;;;;;;;;;;;;;;2071008;28;7041;-58
2020/12/06 06:07:01;;;;;;;;;;;;;;;;;;2070929;28;7014;-61
2020/12/06 06:08:05;;;;;;;;;;;;;;;;;;2071404;28;7049;-60
2020/12/06 06:09:07;;;;;;;;;;;;;;;;;;2071353;28;7085;-61
2020/12/06 06:10:14;;;;;;;;;;;;;;;;;;2071262;28;7112;-60
2020/12/06 06:11:30;;;;;;;;;;;;;;;;;;2070224;28;7057;-63
2020/12/06 06:12:32;;;;;;;;;;;;;;;;;;2070945;28;7005;-60
2020/12/06 06:13:39;;;;;;;;;;;;;;;;;;2070937;28;7009;-61
2020/12/06 06:14:42;;;;;;;;;;;;;;;;;;2070874;28;7050;-61
2020/12/06 06:15:44;;;;;;;;;;;;;;;;;;2071415;28;7038;-58
2020/12/06 06:16:46;;;;;;;;;;;;;;;;;;2070821;28;8039;-61
2020/12/06 06:17:49;;;;;;;;;;;;;;;;;;2071425;28;8119;-60
2020/12/06 06:18:52;;;;;;;;;;;;;;;;;;2071685;28;7077;-59
2020/12/06 06:19:54;;;;;;;;;;;;;;;;;;2070867;28;7093;-60
2020/12/06 06:20:56;;;;;;;;;;;;;;;;;;2070429;28;7096;-60
2020/12/06 06:22:00;;;;;;;;;;;;;;;;;;2070660;28;7683;-59
2020/12/06 06:23:03;;;;;;;;;;;;;;;;;;2070146;28;7096;-58
2020/12/06 06:24:14;;;;;;;;;;;;;;;;;;2071270;28;7112;-60
2020/12/06 06:25:17;;;;;;;;;;;;;;;;;;2070016;28;7320;-60
2020/12/06 06:26:22;;;;;;;;;;;;;;;;;;2071498;28;7009;-61
2020/12/06 06:27:24;;;;;;;;;;;;;;;;;;2070918;28;7010;-60
2020/12/06 06:28:26;;;;;;;;;;;;;;;;;;2071488;28;8018;-60
2020/12/06 06:29:29;;;;;;;;;;;;;;;;;;2070598;28;7009;-60
2020/12/06 06:30:32;;;;;;;;;;;;;;;;;;2071300;28;7096;-61
2020/12/06 06:31:35;;;;;;;;;;;;;;;;;;2068957;28;7021;-60
2020/12/06 06:32:38;;;;;;;;;;;;;;;;;;2071658;28;7010;-58
2020/12/06 06:33:40;;;;;;;;;;;;;;;;;;2070217;28;8094;-60
2020/12/06 06:34:42;;;;;;;;;;;;;;;;;;2071460;28;7172;-60
2020/12/06 06:35:46;;;;;;;;;;;;;;;;;;2071409;28;7084;-61
2020/12/06 06:36:49;;;;;;;;;;;;;;;;;;2068805;28;7341;-63
2020/12/06 06:37:51;;;;;;;;;;;;;;;;;;2071966;28;8042;-61
2020/12/06 06:38:54;;;;;;;;;;;;;;;;;;2071574;28;7009;-59
2020/12/06 06:39:58;;;;;;;;;;;;;;;;;;2070669;28;7439;-60
2020/12/06 06:41:02;;;;;;;;;;;;;;;;;;2068818;28;7125;-62
2020/12/06 06:42:10;;;;;;;;;;;;;;;;;;2069982;28;7038;-60
2020/12/06 06:43:16;;;;;;;;;;;;;;;;;;2070829;28;7050;-60
2020/12/06 06:44:18;;;;;;;;;;;;;;;;;;2071009;28;8012;-60
2020/12/06 06:45:20;;;;;;;;;;;;;;;;;;2070936;28;7049;-62
2020/12/06 06:46:22;;;;;;;;;;;;;;;;;;2070738;28;7096;-61
2020/12/06 06:47:24;;;;;;;;;;;;;;;;;;2071148;28;7013;-61
2020/12/06 06:48:26;;;;;;;;;;;;;;;;;;2070892;28;7013;-59
2020/12/06 06:49:29;;;;;;;;;;;;;;;;;;2071194;28;7025;-60
2020/12/06 06:50:32;;;;;;;;;;;;;;;;;;2071305;28;8039;-60
2020/12/06 06:51:33;;;;;;;;;;;;;;;;;;2070903;28;8101;-62
2020/12/06 06:52:40;;;;;;;;;;;;;;;;;;2070863;28;7343;-61
2020/12/06 06:53:41;;;;;;;;;;;;;;;;;;2062255;28;7092;-59
2020/12/06 06:54:46;;;;;;;;;;;;;;;;;;2062083;28;7010;-61
2020/12/06 06:55:52;;;;;;;;;;;;;;;;;;2070988;28;7014;-61
2020/12/06 06:56:55;;;;;;;;;;;;;;;;;;2070989;28;7014;-59
2020/12/06 06:57:58;;;;;;;;;;;;;;;;;;2072008;28;8183;-61
2020/12/06 06:59:03;;;;;;;;;;;;;;;;;;2071092;28;7013;-60
2020/12/06 07:00:05;;;;;;;;;;;;;;;;;;2071638;28;7116;-60
2020/12/06 07:01:17;;;;;;;;;;;;;;;;;;2070108;28;7046;-61
2020/12/06 07:02:25;;;;;;;;;;;;;;;;;;2070002;28;7017;-61
2020/12/06 07:03:27;;;;;;;;;;;;;;;;;;2070525;28;7014;-61
2020/12/06 07:04:29;;;;;;;;;;;;;;;;;;2071256;28;7013;-60
2020/12/06 07:05:37;;;;;;;;;;;;;;;;;;2070923;28;7014;-59
2020/12/06 07:06:46;;;;;;;;;;;;;;;;;;2071048;28;9390;-58
2020/12/06 07:07:50;;;;;;;;;;;;;;;;;;2071036;28;7009;-61
2020/12/06 07:08:51;;;;;;;;;;;;;;;;;;2070996;28;7010;-63
2020/12/06 07:09:53;;;;;;;;;;;;;;;;;;2071074;28;7035;-60
2020/12/06 07:10:55;;;;;;;;;;;;;;;;;;2070862;28;7046;-62
2020/12/06 07:11:59;;;;;;;;;;;;;;;;;;2069989;28;7010;-59
2020/12/06 07:13:05;;;;;;;;;;;;;;;;;;2072613;28;7013;-58
2020/12/06 07:14:08;;;;;;;;;;;;;;;;;;2072312;28;8498;-59
2020/12/06 07:15:11;;;;;;;;;;;;;;;;;;2071790;28;7131;-61
2020/12/06 07:16:13;;;;;;;;;;;;;;;;;;2072535;28;7134;-59